Time;durP1;ratioP1;P1;durP2;ratioP2;P2;SDS_P1;SDS_P2;PMS_P1;PMS_P2;Temp;Humidity;BMP_temperature;BMP_pressure;BME280_temperature;BME280_humidity;BME280_pressure;Samples;Min_cycle;Max_cycle;Signal;HPM_P1;HPM_P2
2023/01/16 00:01:58;;;;;;;16.80;9.07;;;4.20;99.90;;;;;;5049417;28;20056;-79
2023/01/16 00:04:44;;;;;;;12.68;8.65;;;4.20;99.90;;;;;;5030946;28;20115;-81
2023/01/16 00:07:30;;;;;;;18.23;9.02;;;4.20;99.90;;;;;;5049156;28;20154;-79
2023/01/16 00:10:16;;;;;;;14.93;8.25;;;4.20;99.90;;;;;;5053885;28;20068;-86
2023/01/16 00:13:02;;;;;;;13.15;7.82;;;4.20;99.90;;;;;;5036185;28;20113;-79
2023/01/16 00:15:50;;;;;;;14.35;7.78;;;4.20;99.90;;;;;;5053370;28;20515;-81
2023/01/16 00:18:36;;;;;;;14.43;7.10;;;4.30;99.90;;;;;;5054458;28;20060;-80
2023/01/16 00:21:26;;;;;;;11.30;7.00;;;4.30;99.90;;;;;;5053430;28;20049;-79
2023/01/16 00:24:12;;;;;;;11.57;7.20;;;4.30;99.90;;;;;;5053273;28;20068;-80
2023/01/16 00:26:58;;;;;;;16.30;6.47;;;4.30;99.90;;;;;;5053395;28;20080;-79
2023/01/16 00:29:45;;;;;;;10.50;6.13;;;4.30;99.90;;;;;;5038820;28;20099;-78
2023/01/16 00:32:31;;;;;;;10.77;6.38;;;4.30;99.90;;;;;;5056673;28;20501;-79
2023/01/16 00:35:17;;;;;;;12.27;6.28;;;4.40;99.90;;;;;;5052708;28;20448;-81
2023/01/16 00:38:03;;;;;;;11.00;6.55;;;4.40;99.90;;;;;;5052901;28;20136;-80
2023/01/16 00:40:49;;;;;;;12.10;6.68;;;4.40;99.90;;;;;;5052099;28;20072;-79
2023/01/16 00:43:35;;;;;;;35.40;7.82;;;4.50;99.90;;;;;;5052103;28;20087;-82
2023/01/16 00:46:21;;;;;;;13.75;6.60;;;4.50;99.90;;;;;;5053041;28;20424;-83
2023/01/16 00:49:07;;;;;;;8.60;5.25;;;4.50;99.90;;;;;;5054849;28;20147;-84
2023/01/16 00:51:53;;;;;;;14.60;5.85;;;4.50;99.90;;;;;;5054918;28;20045;-84
2023/01/16 00:54:39;;;;;;;11.13;4.78;;;4.60;99.90;;;;;;5035030;28;20144;-80
2023/01/16 00:57:25;;;;;;;11.82;4.43;;;4.50;99.90;;;;;;5034810;28;20057;-79
2023/01/16 01:00:12;;;;;;;9.55;4.35;;;4.60;99.90;;;;;;5038452;28;20048;-79
2023/01/16 01:02:58;;;;;;;12.38;3.90;;;4.50;99.90;;;;;;5051381;28;20497;-79
2023/01/16 01:05:44;;;;;;;8.75;4.10;;;4.50;99.90;;;;;;5022652;28;20049;-83
2023/01/16 01:08:30;;;;;;;12.00;5.15;;;4.50;99.90;;;;;;5053957;28;20451;-79
2023/01/16 01:11:16;;;;;;;8.35;4.05;;;4.50;99.90;;;;;;5040059;28;20049;-79
2023/01/16 01:14:02;;;;;;;9.88;4.60;;;4.50;99.90;;;;;;5051876;28;20053;-79
2023/01/16 01:16:48;;;;;;;10.45;5.15;;;4.50;99.90;;;;;;5051149;28;20045;-79
2023/01/16 01:19:35;;;;;;;10.43;4.80;;;4.50;99.90;;;;;;5052536;28;20056;-80
2023/01/16 01:22:21;;;;;;;9.77;5.65;;;4.50;99.90;;;;;;5052043;28;20056;-80
2023/01/16 01:25:07;;;;;;;11.10;5.50;;;4.40;99.90;;;;;;5049423;28;20053;-80
2023/01/16 01:27:53;;;;;;;10.88;5.70;;;4.40;99.90;;;;;;5034249;28;20504;-83
2023/01/16 01:30:39;;;;;;;13.80;6.50;;;4.40;99.90;;;;;;5037957;28;20048;-79
2023/01/16 01:33:25;;;;;;;12.52;5.78;;;4.40;99.90;;;;;;5052058;28;20045;-79
2023/01/16 01:36:11;;;;;;;13.40;6.15;;;4.30;99.90;;;;;;5006694;28;20076;-80
2023/01/16 01:38:57;;;;;;;13.10;6.40;;;4.30;99.90;;;;;;5052018;28;20088;-79
2023/01/16 01:41:43;;;;;;;13.43;6.65;;;4.30;99.90;;;;;;5021181;28;20082;-82
2023/01/16 01:44:50;;;;;;;17.05;7.82;;;4.30;99.90;;;;;;5032836;28;20045;-78
2023/01/16 01:47:40;;;;;;;15.63;7.13;;;4.30;99.90;;;;;;5050741;28;20092;-83
2023/01/16 01:50:41;;;;;;;12.95;7.18;;;4.20;99.90;;;;;;5059914;28;20110;-80
2023/01/16 01:53:37;;;;;;;13.63;6.85;;;4.20;99.90;;;;;;5051057;28;20053;-81
2023/01/16 01:56:44;;;;;;;13.10;6.95;;;4.10;99.90;;;;;;5037346;28;20057;-79
2023/01/16 01:59:38;;;;;;;15.63;6.60;;;4.10;99.90;;;;;;5036642;28;20386;-81
2023/01/16 02:02:28;;;;;;;18.33;8.05;;;4.00;99.90;;;;;;5050319;28;20049;-79
2023/01/16 02:05:24;;;;;;;14.60;6.88;;;4.00;99.90;;;;;;5053152;28;20060;-84
2023/01/16 02:08:14;;;;;;;15.48;7.57;;;4.00;99.90;;;;;;5055233;28;20056;-79
2023/01/16 02:11:25;;;;;;;15.32;7.32;;;4.00;99.90;;;;;;5051352;28;20048;-79
2023/01/16 02:14:15;;;;;;;14.68;6.18;;;4.00;99.90;;;;;;5032157;28;20059;-80
2023/01/16 02:20:21;;;;;;;13.63;6.35;;;4.10;99.90;;;;;;5051539;28;20135;-81
2023/01/16 02:23:41;;;;;;;13.93;6.43;;;4.10;99.90;;;;;;5051785;28;20115;-80
2023/01/16 02:26:40;;;;;;;15.55;6.82;;;4.00;99.90;;;;;;5055840;28;20049;-81
2023/01/16 02:29:50;;;;;;;14.25;5.82;;;4.00;99.90;;;;;;5031805;28;20063;-82
2023/01/16 02:32:53;;;;;;;14.48;6.88;;;3.90;99.90;;;;;;5030479;28;20136;-81
2023/01/16 02:35:47;;;;;;;22.67;6.18;;;3.90;99.90;;;;;;5030742;28;20149;-82
2023/01/16 02:38:53;;;;;;;12.27;5.70;;;3.80;99.90;;;;;;5031104;28;20098;-80
2023/01/16 02:42:03;;;;;;;11.90;6.32;;;3.70;99.90;;;;;;5031299;28;20056;-85
2023/01/16 02:44:53;;;;;;;18.90;5.90;;;3.60;99.90;;;;;;5037331;28;20045;-82
2023/01/16 02:47:43;;;;;;;18.92;7.75;;;3.60;99.90;;;;;;5030309;28;20041;-80
2023/01/16 02:50:55;;;;;;;16.55;5.72;;;3.50;99.90;;;;;;5029967;28;20494;-80
2023/01/16 02:54:18;;;;;;;17.75;6.72;;;3.40;99.90;;;;;;5012908;28;20065;-83
2023/01/16 02:57:10;;;;;;;12.70;5.57;;;3.40;99.90;;;;;;5030040;28;20053;-83
2023/01/16 02:59:56;;;;;;;12.68;5.18;;;3.40;99.90;;;;;;5029126;28;20056;-81
2023/01/16 03:02:43;;;;;;;14.70;5.80;;;3.40;99.90;;;;;;5011953;28;20050;-82
2023/01/16 03:05:41;;;;;;;10.98;5.10;;;3.40;99.90;;;;;;5034638;28;20178;-82
2023/01/16 03:08:58;;;;;;;16.17;5.72;;;3.40;99.90;;;;;;5028021;28;20097;-79
2023/01/16 03:12:11;;;;;;;9.55;4.53;;;3.40;99.90;;;;;;5030607;28;20111;-82
2023/01/16 03:15:09;;;;;;;12.02;5.53;;;3.40;99.90;;;;;;5028537;28;20057;-80
2023/01/16 03:18:17;;;;;;;17.13;5.28;;;3.60;99.90;;;;;;5028502;28;20096;-79
2023/01/16 03:21:12;;;;;;;16.58;7.32;;;3.60;99.90;;;;;;5028871;28;20054;-78
2023/01/16 03:24:07;;;;;;;15.52;5.55;;;3.60;99.90;;;;;;5032866;28;20092;-79
2023/01/16 03:27:13;;;;;;;13.23;6.40;;;3.60;99.90;;;;;;5030070;28;20041;-79
2023/01/16 03:30:19;;;;;;;13.75;5.50;;;3.70;99.90;;;;;;5003828;28;20053;-79
2023/01/16 03:33:43;;;;;;;12.00;5.63;;;3.70;99.90;;;;;;5032351;28;20099;-80
2023/01/16 03:36:42;;;;;;;12.60;5.63;;;3.80;99.90;;;;;;5050753;28;20106;-84
2023/01/16 03:39:34;;;;;;;12.15;5.82;;;3.80;99.90;;;;;;5050124;28;20048;-84
2023/01/16 03:42:37;;;;;;;13.65;6.18;;;3.90;99.90;;;;;;5053934;28;20048;-80
2023/01/16 03:45:33;;;;;;;16.88;6.97;;;3.90;99.90;;;;;;5050104;28;20046;-81
2023/01/16 03:48:27;;;;;;;16.23;6.50;;;3.90;99.90;;;;;;5052191;28;20118;-80
2023/01/16 03:51:20;;;;;;;12.77;7.03;;;4.00;99.90;;;;;;5053217;28;20070;-79
2023/01/16 03:54:27;;;;;;;20.00;7.75;;;4.00;99.90;;;;;;5053940;28;20226;-79
2023/01/16 03:57:20;;;;;;;15.18;6.45;;;4.00;99.90;;;;;;5036736;28;20048;-78
2023/01/16 04:00:07;;;;;;;16.25;6.90;;;4.10;99.90;;;;;;5053595;28;20158;-81
2023/01/16 04:03:18;;;;;;;14.80;7.07;;;4.10;99.90;;;;;;5059625;28;20456;-80
2023/01/16 04:06:13;;;;;;;15.13;6.38;;;4.10;99.90;;;;;;5036705;28;20386;-83
2023/01/16 04:09:04;;;;;;;15.93;6.88;;;4.10;99.90;;;;;;5054849;28;20056;-83
2023/01/16 04:11:51;;;;;;;15.48;7.00;;;4.10;99.90;;;;;;5035600;28;20061;-81
2023/01/16 04:14:40;;;;;;;13.00;5.85;;;4.10;99.90;;;;;;5038306;28;20057;-80
2023/01/16 04:17:28;;;;;;;13.00;5.95;;;4.10;99.90;;;;;;5053702;28;20082;-81
2023/01/16 04:20:14;;;;;;;16.98;7.55;;;4.10;99.90;;;;;;5055982;28;20140;-80
2023/01/16 04:23:00;;;;;;;15.73;7.72;;;4.10;99.90;;;;;;5053760;28;20060;-80
2023/01/16 04:25:46;;;;;;;17.15;5.82;;;4.10;99.90;;;;;;5053515;28;20440;-80
2023/01/16 04:28:32;;;;;;;14.32;6.07;;;4.10;99.90;;;;;;5052906;28;20489;-79
2023/01/16 04:31:18;;;;;;;17.58;7.47;;;4.10;99.90;;;;;;5054289;28;20190;-79
2023/01/16 04:34:04;;;;;;;12.68;7.25;;;4.10;99.90;;;;;;5053220;28;20746;-80
2023/01/16 04:36:50;;;;;;;13.55;6.55;;;4.10;99.90;;;;;;5041769;28;20107;-84
2023/01/16 04:39:36;;;;;;;14.18;7.47;;;4.10;99.90;;;;;;5042171;28;20531;-79
2023/01/16 04:42:22;;;;;;;17.08;7.95;;;4.10;99.90;;;;;;5053000;28;20405;-80
2023/01/16 04:45:09;;;;;;;20.23;8.00;;;4.20;99.90;;;;;;5053905;28;20523;-80
2023/01/16 04:47:56;;;;;;;21.17;9.43;;;4.10;99.90;;;;;;5052203;28;20060;-81
2023/01/16 04:50:42;;;;;;;18.63;8.73;;;4.10;99.90;;;;;;5035144;28;20099;-80
2023/01/16 04:53:28;;;;;;;17.52;9.45;;;4.20;99.90;;;;;;5051735;28;20052;-79
2023/01/16 04:56:14;;;;;;;13.13;7.60;;;4.20;99.90;;;;;;5037719;28;20114;-83
2023/01/16 04:59:00;;;;;;;14.00;7.68;;;4.20;99.90;;;;;;5058032;28;20049;-80
2023/01/16 05:01:46;;;;;;;20.58;8.65;;;4.20;99.90;;;;;;5052422;28;20239;-80
2023/01/16 05:04:32;;;;;;;17.38;8.43;;;4.20;99.90;;;;;;5052657;28;20048;-81
2023/01/16 05:07:18;;;;;;;16.75;7.38;;;4.20;99.90;;;;;;5038207;28;20072;-79
2023/01/16 05:10:05;;;;;;;19.17;10.10;;;4.20;99.90;;;;;;5052132;28;20758;-82
2023/01/16 05:12:51;;;;;;;19.00;9.13;;;4.20;99.90;;;;;;5051297;28;20045;-79
2023/01/16 05:15:37;;;;;;;14.38;8.77;;;4.20;99.90;;;;;;5054526;28;20091;-84
2023/01/16 05:18:24;;;;;;;18.67;9.68;;;4.20;99.90;;;;;;5041653;28;20045;-81
2023/01/16 05:21:10;;;;;;;20.85;9.57;;;4.20;99.90;;;;;;5033611;28;20059;-79
2023/01/16 05:23:56;;;;;;;19.63;9.10;;;4.20;99.90;;;;;;5053108;28;20136;-81
2023/01/16 05:26:42;;;;;;;20.95;9.30;;;4.20;99.90;;;;;;5051128;28;20057;-81
2023/01/16 05:29:28;;;;;;;23.00;10.35;;;4.20;99.90;;;;;;5034778;28;20098;-80
2023/01/16 05:32:14;;;;;;;25.77;10.32;;;4.20;99.90;;;;;;5039629;28;20118;-84
2023/01/16 05:35:01;;;;;;;17.92;9.85;;;4.20;99.90;;;;;;5043271;28;20041;-80
2023/01/16 05:37:48;;;;;;;23.13;10.77;;;4.20;99.90;;;;;;5019555;28;20135;-80
2023/01/16 05:40:34;;;;;;;21.40;10.30;;;4.20;99.90;;;;;;5050733;28;20060;-79
2023/01/16 05:43:20;;;;;;;24.55;10.63;;;4.10;99.90;;;;;;5038379;28;20112;-81
2023/01/16 05:46:06;;;;;;;19.23;10.25;;;4.20;99.90;;;;;;5052370;28;20756;-80
2023/01/16 05:48:55;;;;;;;24.73;10.27;;;4.20;99.90;;;;;;5051520;28;20055;-78
2023/01/16 05:51:41;;;;;;;31.25;11.27;;;4.10;99.90;;;;;;5034855;28;20064;-82
2023/01/16 05:54:27;;;;;;;20.02;10.02;;;4.10;99.90;;;;;;5038131;28;20087;-78
2023/01/16 05:57:13;;;;;;;19.48;9.95;;;4.20;99.90;;;;;;5051281;28;20593;-79
2023/01/16 05:59:59;;;;;;;21.13;10.00;;;4.10;99.90;;;;;;5034015;28;20088;-83
2023/01/16 06:02:46;;;;;;;25.35;11.15;;;4.10;99.90;;;;;;5051417;28;20045;-83
2023/01/16 06:05:32;;;;;;;23.52;11.20;;;4.10;99.90;;;;;;5032265;28;20057;-82
2023/01/16 06:08:18;;;;;;;27.42;10.75;;;4.10;99.90;;;;;;5052103;28;20136;-82
2023/01/16 06:11:04;;;;;;;20.77;10.60;;;4.10;99.90;;;;;;5053842;28;20066;-80
2023/01/16 06:13:51;;;;;;;24.33;10.85;;;4.10;99.90;;;;;;5033882;28;20088;-82
2023/01/16 06:16:37;;;;;;;22.65;11.07;;;4.10;99.90;;;;;;5032840;28;20388;-82
2023/01/16 06:19:23;;;;;;;24.73;11.32;;;4.10;99.90;;;;;;5051391;28;20056;-80
2023/01/16 06:22:09;;;;;;;24.00;11.10;;;4.10;99.90;;;;;;5052068;28;20049;-80
2023/01/16 06:24:55;;;;;;;25.25;11.02;;;4.20;99.90;;;;;;5034369;28;20148;-80
2023/01/16 06:27:41;;;;;;;21.98;11.25;;;4.20;99.90;;;;;;5040591;28;20501;-82
2023/01/16 06:30:27;;;;;;;23.77;11.82;;;4.20;99.90;;;;;;5056633;28;20053;-79
2023/01/16 06:33:13;;;;;;;24.73;11.35;;;4.20;99.90;;;;;;5057412;28;20053;-81
2023/01/16 06:36:00;;;;;;;28.55;12.48;;;4.20;99.90;;;;;;5051825;28;20384;-83
2023/01/16 06:38:46;;;;;;;21.63;10.82;;;4.20;99.90;;;;;;5051748;28;20040;-80
2023/01/16 06:41:32;;;;;;;22.23;11.55;;;4.20;99.90;;;;;;5049939;28;20144;-80
2023/01/16 06:44:18;;;;;;;25.23;11.75;;;4.10;99.90;;;;;;5033080;28;20095;-80
2023/01/16 06:47:04;;;;;;;24.10;11.45;;;4.10;99.90;;;;;;5051067;28;20045;-79
2023/01/16 06:49:50;;;;;;;23.17;11.93;;;4.10;99.90;;;;;;5051264;28;20055;-81
2023/01/16 06:52:37;;;;;;;22.88;9.82;;;4.10;99.90;;;;;;5037273;28;20068;-80
2023/01/16 06:55:23;;;;;;;21.00;10.68;;;4.10;99.90;;;;;;5050747;28;20099;-83
2023/01/16 06:58:09;;;;;;;21.83;10.30;;;4.10;99.90;;;;;;5050769;28;20049;-80
2023/01/16 07:00:56;;;;;;;20.15;10.20;;;4.00;99.90;;;;;;5049069;28;20499;-80
2023/01/16 07:03:42;;;;;;;24.50;12.05;;;4.00;99.90;;;;;;5049141;28;20044;-81
2023/01/16 07:06:28;;;;;;;21.77;11.07;;;4.00;99.90;;;;;;5031343;28;20055;-81
2023/01/16 07:09:14;;;;;;;22.33;11.18;;;4.00;99.90;;;;;;5033781;28;20058;-84
2023/01/16 07:12:00;;;;;;;23.85;11.27;;;3.90;99.90;;;;;;5053392;28;20059;-80
2023/01/16 07:24:05;;;;;;;23.98;11.63;;;3.80;99.90;;;;;;5051735;28;20568;-80
2023/01/16 07:26:58;;;;;;;21.70;10.32;;;3.70;99.90;;;;;;5053971;28;20045;-83
2023/01/16 07:29:44;;;;;;;28.30;11.25;;;3.70;99.90;;;;;;5053707;28;20049;-82
2023/01/16 07:32:30;;;;;;;22.30;11.15;;;3.60;99.90;;;;;;5038750;28;20084;-80
2023/01/16 07:35:17;;;;;;;24.27;11.38;;;3.60;99.90;;;;;;5054525;28;20088;-79
2023/01/16 07:38:04;;;;;;;26.75;14.55;;;3.60;99.90;;;;;;5054162;28;20091;-80
2023/01/16 07:40:50;;;;;;;20.00;10.25;;;3.50;99.90;;;;;;5053924;28;20060;-80
2023/01/16 07:43:36;;;;;;;20.67;11.00;;;3.50;99.90;;;;;;5053547;28;20053;-84
2023/01/16 07:46:22;;;;;;;23.77;10.35;;;3.50;99.90;;;;;;5053238;28;20045;-80
2023/01/16 07:49:08;;;;;;;20.13;10.60;;;3.40;99.90;;;;;;5054491;28;20056;-81
2023/01/16 07:51:54;;;;;;;23.05;11.05;;;3.40;99.90;;;;;;5056919;28;20049;-80
2023/01/16 07:54:41;;;;;;;25.67;10.30;;;3.30;99.90;;;;;;5053678;28;20057;-79
2023/01/16 07:57:27;;;;;;;23.23;9.57;;;3.30;99.90;;;;;;5053013;28;20583;-80
2023/01/16 08:00:14;;;;;;;20.33;10.20;;;3.30;99.90;;;;;;5053483;28;20144;-83
2023/01/16 08:03:00;;;;;;;23.38;11.05;;;3.30;99.90;;;;;;5039267;28;20056;-81
2023/01/16 08:05:46;;;;;;;23.35;10.25;;;3.30;99.90;;;;;;5053376;28;20048;-80
2023/01/16 08:08:32;;;;;;;25.35;10.57;;;3.30;99.90;;;;;;5039140;28;20448;-79
2023/01/16 08:11:38;;;;;;;24.33;10.88;;;3.30;99.90;;;;;;5059437;28;20071;-81
2023/01/16 08:14:24;;;;;;;25.48;10.48;;;3.30;99.90;;;;;;5051674;28;20049;-80
2023/01/16 08:17:10;;;;;;;27.08;10.95;;;3.20;99.90;;;;;;5053936;28;20060;-82
2023/01/16 08:19:56;;;;;;;22.42;10.52;;;3.30;99.90;;;;;;5052209;28;20511;-80
2023/01/16 08:22:47;;;;;;;20.67;10.13;;;3.30;99.90;;;;;;5051822;28;20045;-81
2023/01/16 08:25:33;;;;;;;22.65;10.10;;;3.30;99.90;;;;;;5053328;28;20052;-80
2023/01/16 08:28:19;;;;;;;17.48;9.13;;;3.30;99.90;;;;;;5035587;28;20053;-80
2023/01/16 08:31:13;;;;;;;26.50;10.73;;;3.30;99.90;;;;;;5039275;28;20049;-79
2023/01/16 08:33:59;;;;;;;22.88;10.13;;;3.30;99.90;;;;;;5053817;28;20045;-81
2023/01/16 08:36:45;;;;;;;25.80;10.88;;;3.30;99.90;;;;;;5052591;28;20458;-80
2023/01/16 08:39:31;;;;;;;21.42;9.80;;;3.30;99.90;;;;;;5053294;28;20068;-84
2023/01/16 08:51:32;;;;;;;20.47;8.57;;;3.40;99.90;;;;;;5041874;28;20053;-79
2023/01/16 08:54:18;;;;;;;24.10;8.65;;;3.40;99.90;;;;;;5058601;28;20136;-80
2023/01/16 08:57:05;;;;;;;17.90;8.82;;;3.40;99.90;;;;;;5054376;28;20064;-79
2023/01/16 08:59:51;;;;;;;20.73;8.50;;;3.50;99.90;;;;;;5053219;28;20051;-80
2023/01/16 09:02:38;;;;;;;17.02;7.78;;;3.50;99.90;;;;;;5006544;28;20056;-80
2023/01/16 09:05:24;;;;;;;21.80;7.95;;;3.50;99.90;;;;;;5037948;28;20049;-80
2023/01/16 09:08:11;;;;;;;21.70;8.57;;;3.60;99.90;;;;;;5051243;28;20060;-81
2023/01/16 09:14:01;;;;;;;22.27;8.75;;;3.60;99.90;;;;;;5050916;28;20405;-81
2023/01/16 09:16:49;;;;;;;20.30;8.88;;;3.70;99.90;;;;;;5052015;28;20053;-80
2023/01/16 09:19:35;;;;;;;15.70;8.18;;;3.70;99.90;;;;;;5035274;28;20195;-81
2023/01/16 09:22:22;;;;;;;24.60;9.15;;;3.70;99.90;;;;;;5052258;28;20051;-79
2023/01/16 09:25:08;;;;;;;18.75;8.75;;;3.70;99.90;;;;;;5052365;28;20053;-79
2023/01/16 09:27:54;;;;;;;14.93;7.60;;;3.80;99.90;;;;;;5051792;28;20049;-80
2023/01/16 09:30:40;;;;;;;19.67;7.80;;;3.80;99.90;;;;;;5037246;28;20140;-84
2023/01/16 09:33:26;;;;;;;15.77;7.43;;;3.80;99.90;;;;;;5057211;28;20053;-83
2023/01/16 09:36:12;;;;;;;24.85;9.18;;;3.80;99.90;;;;;;5020308;28;20053;-81
2023/01/16 09:38:58;;;;;;;18.17;8.40;;;3.80;99.90;;;;;;5040660;28;20053;-81
2023/01/16 09:45:19;;;;;;;16.77;8.57;;;3.80;99.90;;;;;;5053786;28;20174;-81
2023/01/16 09:48:24;;;;;;;19.63;9.02;;;3.80;99.90;;;;;;5054456;28;20139;-79
2023/01/16 09:51:23;;;;;;;20.77;8.75;;;3.80;99.90;;;;;;5034555;28;20063;-81
2023/01/16 10:00:35;;;;;;;19.00;8.25;;;3.90;99.90;;;;;;5051475;28;20052;-82
2023/01/16 10:03:21;;;;;;;17.15;7.20;;;3.90;99.90;;;;;;5051742;28;20055;-81
2023/01/16 10:06:30;;;;;;;12.13;6.18;;;3.90;99.90;;;;;;5051644;28;20147;-80
2023/01/16 10:09:25;;;;;;;13.27;7.10;;;4.00;99.90;;;;;;5051394;28;20056;-80
2023/01/16 10:12:12;;;;;;;17.88;7.50;;;4.00;99.90;;;;;;5051094;28;20049;-82
2023/01/16 10:15:10;;;;;;;18.83;7.50;;;4.00;99.90;;;;;;5051815;28;20048;-80
2023/01/16 10:18:25;;;;;;;21.17;7.53;;;4.00;99.90;;;;;;5050310;28;20053;-80
2023/01/16 10:22:01;;;;;;;12.40;6.22;;;4.00;99.90;;;;;;5051147;28;20505;-83
2023/01/16 10:25:06;;;;;;;15.07;6.80;;;4.10;99.90;;;;;;5004146;28;20874;-80
2023/01/16 10:28:13;;;;;;;14.20;6.97;;;4.00;99.90;;;;;;5051097;28;20079;-81
2023/01/16 10:31:16;;;;;;;15.90;6.80;;;4.00;99.90;;;;;;5051597;28;20052;-86
2023/01/16 10:34:17;;;;;;;13.32;6.55;;;4.00;99.90;;;;;;5032340;28;20060;-80
2023/01/16 10:37:05;;;;;;;16.52;6.53;;;4.00;99.90;;;;;;5053967;28;20401;-84
2023/01/16 10:39:52;;;;;;;19.33;7.35;;;4.00;99.90;;;;;;5045267;28;20115;-83
2023/01/16 10:52:01;;;;;;;14.33;6.73;;;4.10;99.90;;;;;;5051190;28;20420;-82
2023/01/16 10:54:48;;;;;;;13.75;6.13;;;4.10;99.90;;;;;;5051428;28;20103;-82
2023/01/16 10:57:35;;;;;;;13.27;6.05;;;4.10;99.90;;;;;;5051132;28;20053;-81
2023/01/16 11:00:30;;;;;;;12.35;5.82;;;4.10;99.90;;;;;;5050375;28;20060;-84
2023/01/16 11:03:18;;;;;;;9.38;4.97;;;4.10;99.90;;;;;;5032493;28;20138;-83
2023/01/16 11:06:15;;;;;;;11.35;5.88;;;4.20;99.90;;;;;;5049420;28;20396;-83
2023/01/16 11:09:04;;;;;;;18.25;5.43;;;4.20;99.90;;;;;;5050541;28;20417;-80
2023/01/16 11:18:30;;;;;;;;;;;4.20;99.90;;;;;;5032232;28;20057;-81
2023/01/16 11:21:27;;;;;;;9.10;4.80;;;4.10;99.90;;;;;;5033618;28;20380;-81
2023/01/16 11:24:20;;;;;;;10.27;4.45;;;4.20;99.90;;;;;;5031165;28;20174;-79
2023/01/16 11:27:13;;;;;;;12.82;5.18;;;4.10;99.90;;;;;;5048576;28;20416;-81
2023/01/16 11:30:06;;;;;;;8.77;3.28;;;4.10;99.90;;;;;;5032243;28;20095;-79
2023/01/16 11:32:54;;;;;;;10.25;3.85;;;4.10;99.90;;;;;;5036095;28;20047;-81
2023/01/16 11:35:47;;;;;;;8.38;3.33;;;4.10;99.90;;;;;;5049394;28;20084;-77
2023/01/16 11:38:37;;;;;;;9.45;3.53;;;4.10;99.90;;;;;;5032276;28;20067;-80
2023/01/16 11:41:28;;;;;;;9.05;3.22;;;4.10;99.90;;;;;;5035570;28;20048;-80
2023/01/16 11:47:26;;;;;;;6.07;2.72;;;4.00;99.90;;;;;;5049326;28;20137;-80
2023/01/16 11:50:30;;;;;;;5.97;2.63;;;3.90;99.90;;;;;;5050232;28;20060;-83
2023/01/16 11:53:16;;;;;;;5.22;2.40;;;3.90;99.90;;;;;;5050283;28;20122;-82
2023/01/16 11:56:23;;;;;;;4.35;2.22;;;3.80;99.90;;;;;;5050735;28;20041;-84
2023/01/16 11:59:26;;;;;;;5.50;2.20;;;3.80;99.90;;;;;;5032185;28;20048;-84
2023/01/16 12:02:23;;;;;;;8.65;1.80;;;3.70;99.90;;;;;;5038420;28;20064;-81
2023/01/16 12:05:58;;;;;;;2.95;1.48;;;3.70;99.90;;;;;;5032863;28;20049;-82
2023/01/16 12:08:55;;;;;;;3.63;1.48;;;3.70;99.90;;;;;;5031740;28;20049;-83
2023/01/16 12:14:17;;;;;;;4.00;1.48;;;3.60;99.90;;;;;;5054464;28;20052;-81
2023/01/16 12:15:22;;;;;;;4.68;2.13;;;3.60;99.90;;;;;;5054004;28;20456;-81
2023/01/16 12:18:36;;;;;;;3.33;1.30;;;3.60;99.90;;;;;;5052323;28;20132;-80
2023/01/16 12:21:24;;;;;;;4.32;1.10;;;3.60;99.90;;;;;;5053960;28;20463;-79
2023/01/16 12:24:39;;;;;;;4.05;1.25;;;3.50;99.90;;;;;;5052036;28;20064;-81
2023/01/16 12:28:00;;;;;;;3.95;1.15;;;3.50;99.90;;;;;;5051708;28;20053;-84
2023/01/16 12:31:17;;;;;;;3.92;1.40;;;3.50;99.90;;;;;;5023303;28;20067;-80
2023/01/16 12:34:06;;;;;;;3.03;1.10;;;3.50;99.90;;;;;;5055150;28;20049;-80
2023/01/16 12:36:52;;;;;;;6.00;1.42;;;3.50;99.90;;;;;;5063426;28;20052;-80
2023/01/16 12:40:09;;;;;;;4.55;1.40;;;3.50;99.90;;;;;;5056735;28;20045;-81
2023/01/16 12:43:26;;;;;;;3.70;1.40;;;3.50;99.90;;;;;;5053774;28;20091;-80
2023/01/16 12:46:28;;;;;;;3.95;1.38;;;3.50;99.90;;;;;;5053277;28;20464;-81
2023/01/16 12:49:32;;;;;;;3.58;1.58;;;3.50;99.90;;;;;;5053362;28;20048;-81
2023/01/16 12:52:18;;;;;;;4.05;1.45;;;3.50;99.90;;;;;;5053857;28;20053;-80
2023/01/16 12:55:19;;;;;;;4.68;1.80;;;3.50;99.90;;;;;;5033609;28;20106;-83
2023/01/16 12:58:16;;;;;;;4.97;1.67;;;3.50;99.90;;;;;;5034731;28;20060;-80
2023/01/16 13:01:14;;;;;;;4.45;1.83;;;3.50;99.90;;;;;;5035647;28;20057;-84
2023/01/16 13:04:21;;;;;;;3.28;2.00;;;3.60;99.90;;;;;;5059027;28;20053;-82
2023/01/16 13:07:15;;;;;;;3.03;1.40;;;3.60;99.90;;;;;;5052687;28;20617;-81
2023/01/16 13:13:22;;;;;;;3.55;1.70;;;3.60;99.90;;;;;;5033796;28;20497;-80
2023/01/16 13:16:32;;;;;;;3.50;1.30;;;3.60;99.90;;;;;;5021169;28;20057;-80
2023/01/16 13:19:23;;;;;;;3.28;1.50;;;3.60;99.90;;;;;;5052951;28;20053;-81
2023/01/16 13:22:10;;;;;;;3.38;1.48;;;3.70;99.90;;;;;;5053052;28;20057;-81
2023/01/16 13:25:05;;;;;;;3.60;1.70;;;3.70;99.90;;;;;;5054855;28;20413;-81
2023/01/16 13:28:00;;;;;;;8.65;3.03;;;3.70;99.90;;;;;;5055480;28;20045;-84
2023/01/16 13:30:46;;;;;;;4.93;1.92;;;3.70;99.90;;;;;;5042499;28;20160;-81
2023/01/16 13:33:39;;;;;;;4.72;1.98;;;3.70;99.90;;;;;;5052222;28;20413;-80
2023/01/16 13:36:51;;;;;;;6.00;1.80;;;3.80;99.90;;;;;;5038010;28;20057;-81
2023/01/16 13:39:40;;;;;;;5.22;2.05;;;3.70;99.90;;;;;;5033790;28;20618;-80
2023/01/16 13:42:28;;;;;;;3.20;1.70;;;3.80;99.90;;;;;;5051840;28;20524;-80
2023/01/16 13:45:50;;;;;;;4.75;1.95;;;3.80;99.90;;;;;;5034098;28;20512;-83
2023/01/16 13:48:37;;;;;;;5.32;2.08;;;3.80;99.90;;;;;;5051400;28;20049;-83
2023/01/16 13:51:26;;;;;;;7.43;2.30;;;3.80;99.90;;;;;;5055585;28;20103;-80
2023/01/16 13:54:20;;;;;;;6.80;2.90;;;3.80;99.90;;;;;;5034508;28;20049;-81
2023/01/16 13:57:20;;;;;;;6.20;2.30;;;3.80;99.90;;;;;;5051977;28;20132;-80
2023/01/16 14:00:12;;;;;;;5.95;2.47;;;3.90;99.90;;;;;;5050455;28;20049;-81
2023/01/16 14:03:25;;;;;;;6.40;2.90;;;3.90;99.90;;;;;;5033429;28;20110;-84
2023/01/16 14:06:11;;;;;;;5.22;2.75;;;3.90;99.90;;;;;;5034245;28;20600;-81
2023/01/16 14:09:07;;;;;;;9.57;3.90;;;3.90;99.90;;;;;;5033599;28;20527;-84
2023/01/16 14:12:12;;;;;;;6.45;2.70;;;3.90;99.90;;;;;;5054281;28;20056;-84
2023/01/16 14:18:41;;;;;;;6.75;3.38;;;4.00;99.90;;;;;;5051776;28;20049;-80
2023/01/16 14:24:00;;;;;;;7.03;3.63;;;4.00;99.90;;;;;;5050778;28;20564;-79
2023/01/16 14:24:53;;;;;;;13.50;3.83;;;4.00;99.90;;;;;;5050152;28;20060;-81
2023/01/16 14:27:40;;;;;;;5.60;3.28;;;4.10;99.90;;;;;;5033151;28;20138;-85
2023/01/16 14:30:32;;;;;;;6.75;3.55;;;4.10;99.90;;;;;;5033265;28;20060;-81
2023/01/16 14:33:19;;;;;;;7.32;3.22;;;4.10;99.90;;;;;;5058253;28;20445;-80
2023/01/16 14:36:14;;;;;;;10.18;3.45;;;4.10;99.90;;;;;;5032880;28;20059;-81
2023/01/16 14:39:00;;;;;;;5.55;3.08;;;4.10;99.90;;;;;;5032987;28;20772;-80
2023/01/16 14:57:43;;;;;;;7.90;4.05;;;4.20;99.90;;;;;;5050335;28;20065;-85
2023/01/16 15:00:30;;;;;;;7.45;4.00;;;4.20;99.90;;;;;;5032360;28;20057;-80
2023/01/16 15:03:27;;;;;;;8.15;4.70;;;4.20;99.90;;;;;;5050493;28;20513;-80
2023/01/16 15:06:14;;;;;;;7.32;5.00;;;4.20;99.90;;;;;;5032367;28;20057;-81
2023/01/16 15:09:01;;;;;;;7.43;4.35;;;4.20;99.90;;;;;;5036268;28;20149;-81
2023/01/16 15:11:55;;;;;;;7.47;4.95;;;4.20;99.90;;;;;;5050314;28;20389;-80
2023/01/16 15:14:55;;;;;;;8.38;4.82;;;4.20;99.90;;;;;;5057261;28;20052;-80
2023/01/16 15:24:04;;;;;;;9.05;5.03;;;4.30;99.90;;;;;;5032560;28;20091;-80
2023/01/16 15:27:10;;;;;;;7.97;5.15;;;4.20;99.90;;;;;;5050647;28;20055;-81
2023/01/16 15:30:06;;;;;;;9.75;5.15;;;4.20;99.90;;;;;;5049298;28;20144;-81
2023/01/16 15:36:22;;;;;;;9.48;5.55;;;4.30;99.90;;;;;;5050373;28;20109;-82
2023/01/16 15:39:18;;;;;;;9.70;5.75;;;4.30;99.90;;;;;;5050137;28;20052;-83
2023/01/16 15:48:44;;;;;;;9.85;6.28;;;4.30;99.90;;;;;;5053581;28;20049;-82
2023/01/16 15:51:30;;;;;;;9.60;5.88;;;4.30;99.90;;;;;;5061498;28;20147;-83
2023/01/16 15:54:16;;;;;;;8.32;5.30;;;4.30;99.90;;;;;;5035029;28;20092;-80
2023/01/16 15:57:02;;;;;;;11.15;6.00;;;4.30;99.90;;;;;;5053810;28;20045;-83
2023/01/16 15:59:56;;;;;;;10.65;6.65;;;4.30;99.90;;;;;;5054093;28;20469;-85
2023/01/16 16:02:42;;;;;;;9.13;6.30;;;4.30;99.90;;;;;;5054632;28;20048;-84
2023/01/16 16:05:29;;;;;;;12.90;7.05;;;4.30;99.90;;;;;;5053726;28;20049;-81
2023/01/16 16:08:19;;;;;;;12.30;6.63;;;4.30;99.90;;;;;;5052873;28;20052;-85
2023/01/16 16:20:41;;;;;;;12.30;6.93;;;4.30;99.90;;;;;;5052697;28;20524;-81
2023/01/16 16:23:27;;;;;;;8.48;6.40;;;4.30;99.90;;;;;;5053399;28;20049;-80
2023/01/16 16:26:15;;;;;;;13.10;6.55;;;4.30;99.90;;;;;;5053303;28;20052;-80
2023/01/16 16:29:04;;;;;;;9.98;6.40;;;4.40;99.90;;;;;;5057773;28;20139;-80
2023/01/16 16:31:50;;;;;;;13.60;6.72;;;4.40;99.90;;;;;;5036054;28;20052;-80
2023/01/16 16:34:36;;;;;;;11.10;7.68;;;4.40;99.90;;;;;;5038488;28;20063;-80
2023/01/16 16:37:24;;;;;;;13.80;6.95;;;4.40;99.90;;;;;;5053814;28;20056;-83
2023/01/16 16:40:15;;;;;;;10.60;6.40;;;4.40;99.90;;;;;;5035425;28;20543;-81